sensor_id;sensor_type;location;lat;lon;timestamp;temperature;humidity
24814;DHT22;12904;50.088;11.414;2023-02-01T00:01:11;4.00;99.90
24814;DHT22;12904;50.088;11.414;2023-02-01T00:03:36;4.00;99.90
24814;DHT22;12904;50.088;11.414;2023-02-01T00:06:02;3.90;99.90
24814;DHT22;12904;50.088;11.414;2023-02-01T00:08:28;3.90;99.90
24814;DHT22;12904;50.088;11.414;2023-02-01T00:11:03;3.90;99.90
24814;DHT22;12904;50.088;11.414;2023-02-01T00:13:30;3.90;99.90
24814;DHT22;12904;50.088;11.414;2023-02-01T00:16:11;3.90;99.90
24814;DHT22;12904;50.088;11.414;2023-02-01T00:18:38;3.90;99.90
24814;DHT22;12904;50.088;11.414;2023-02-01T00:21:04;3.90;99.90
24814;DHT22;12904;50.088;11.414;2023-02-01T00:23:34;3.90;99.90
24814;DHT22;12904;50.088;11.414;2023-02-01T00:26:05;3.90;99.90
24814;DHT22;12904;50.088;11.414;2023-02-01T00:28:31;3.90;99.90
24814;DHT22;12904;50.088;11.414;2023-02-01T00:31:02;3.90;99.90
24814;DHT22;12904;50.088;11.414;2023-02-01T00:33:29;3.90;99.90
24814;DHT22;12904;50.088;11.414;2023-02-01T00:35:58;4.00;99.90
24814;DHT22;12904;50.088;11.414;2023-02-01T00:38:28;4.00;99.90
24814;DHT22;12904;50.088;11.414;2023-02-01T00:40:54;4.00;99.90
24814;DHT22;12904;50.088;11.414;2023-02-01T00:43:20;4.00;99.90
24814;DHT22;12904;50.088;11.414;2023-02-01T00:45:46;4.00;99.90
24814;DHT22;12904;50.088;11.414;2023-02-01T00:48:12;4.10;99.90
24814;DHT22;12904;50.088;11.414;2023-02-01T00:50:44;4.10;99.90
24814;DHT22;12904;50.088;11.414;2023-02-01T00:53:10;4.20;99.90
24814;DHT22;12904;50.088;11.414;2023-02-01T00:55:36;4.20;99.90
24814;DHT22;12904;50.088;11.414;2023-02-01T00:58:02;4.20;99.90
24814;DHT22;12904;50.088;11.414;2023-02-01T01:00:28;4.20;99.90
24814;DHT22;12904;50.088;11.414;2023-02-01T01:02:54;4.20;99.90
24814;DHT22;12904;50.088;11.414;2023-02-01T01:05:21;4.20;99.90
24814;DHT22;12904;50.088;11.414;2023-02-01T01:07:46;4.20;99.90
24814;DHT22;12904;50.088;11.414;2023-02-01T01:10:12;4.30;99.90
24814;DHT22;12904;50.088;11.414;2023-02-01T01:12:38;4.30;99.90
24814;DHT22;12904;50.088;11.414;2023-02-01T01:15:04;4.30;99.90
24814;DHT22;12904;50.088;11.414;2023-02-01T01:17:31;4.30;99.90
24814;DHT22;12904;50.088;11.414;2023-02-01T01:19:57;4.40;99.90
24814;DHT22;12904;50.088;11.414;2023-02-01T01:22:22;4.40;99.90
24814;DHT22;12904;50.088;11.414;2023-02-01T01:24:48;4.40;99.90
24814;DHT22;12904;50.088;11.414;2023-02-01T01:27:15;4.30;99.90
24814;DHT22;12904;50.088;11.414;2023-02-01T01:29:40;4.30;99.90
24814;DHT22;12904;50.088;11.414;2023-02-01T01:32:06;4.20;99.90
24814;DHT22;12904;50.088;11.414;2023-02-01T01:34:31;4.10;99.90
24814;DHT22;12904;50.088;11.414;2023-02-01T01:36:57;4.00;99.90
24814;DHT22;12904;50.088;11.414;2023-02-01T01:39:23;3.90;99.90
24814;DHT22;12904;50.088;11.414;2023-02-01T01:41:48;3.90;99.90
24814;DHT22;12904;50.088;11.414;2023-02-01T01:47:17;3.90;99.90
24814;DHT22;12904;50.088;11.414;2023-02-01T01:49:43;3.90;99.90
24814;DHT22;12904;50.088;11.414;2023-02-01T01:52:09;4.00;99.90
24814;DHT22;12904;50.088;11.414;2023-02-01T01:54:39;4.00;99.90
24814;DHT22;12904;50.088;11.414;2023-02-01T01:57:17;4.00;99.90
24814;DHT22;12904;50.088;11.414;2023-02-01T01:59:48;4.00;99.90
24814;DHT22;12904;50.088;11.414;2023-02-01T02:02:15;4.10;99.90
24814;DHT22;12904;50.088;11.414;2023-02-01T02:04:41;4.10;99.90
24814;DHT22;12904;50.088;11.414;2023-02-01T02:07:21;4.10;99.90
24814;DHT22;12904;50.088;11.414;2023-02-01T02:09:48;4.10;99.90
24814;DHT22;12904;50.088;11.414;2023-02-01T02:12:14;4.20;99.90
24814;DHT22;12904;50.088;11.414;2023-02-01T02:14:39;4.20;99.90
24814;DHT22;12904;50.088;11.414;2023-02-01T02:33:31;4.10;99.90
24814;DHT22;12904;50.088;11.414;2023-02-01T02:39:29;4.10;99.90
24814;DHT22;12904;50.088;11.414;2023-02-01T02:41:51;4.10;99.90
24814;DHT22;12904;50.088;11.414;2023-02-01T02:50:40;4.10;99.90
24814;DHT22;12904;50.088;11.414;2023-02-01T02:53:38;4.00;99.90
24814;DHT22;12904;50.088;11.414;2023-02-01T02:56:26;4.00;99.90
24814;DHT22;12904;50.088;11.414;2023-02-01T02:59:14;3.90;99.90
24814;DHT22;12904;50.088;11.414;2023-02-01T03:02:00;3.90;99.90
24814;DHT22;12904;50.088;11.414;2023-02-01T03:04:44;3.90;99.90
24814;DHT22;12904;50.088;11.414;2023-02-01T03:07:42;3.90;99.90
24814;DHT22;12904;50.088;11.414;2023-02-01T03:09:59;3.90;99.90
24814;DHT22;12904;50.088;11.414;2023-02-01T03:12:32;3.90;99.90
24814;DHT22;12904;50.088;11.414;2023-02-01T03:15:19;3.80;99.90
24814;DHT22;12904;50.088;11.414;2023-02-01T03:17:47;3.80;99.90
24814;DHT22;12904;50.088;11.414;2023-02-01T03:20:17;3.90;99.90
24814;DHT22;12904;50.088;11.414;2023-02-01T03:22:46;3.90;99.90
24814;DHT22;12904;50.088;11.414;2023-02-01T03:25:23;3.90;99.90
24814;DHT22;12904;50.088;11.414;2023-02-01T03:27:55;4.00;99.90
24814;DHT22;12904;50.088;11.414;2023-02-01T03:30:24;4.00;99.90
24814;DHT22;12904;50.088;11.414;2023-02-01T03:32:54;4.00;99.90
24814;DHT22;12904;50.088;11.414;2023-02-01T03:35:40;4.10;99.90
24814;DHT22;12904;50.088;11.414;2023-02-01T03:41:56;4.10;99.90
24814;DHT22;12904;50.088;11.414;2023-02-01T03:44:32;4.10;99.90
24814;DHT22;12904;50.088;11.414;2023-02-01T03:47:02;4.10;99.90
24814;DHT22;12904;50.088;11.414;2023-02-01T03:49:41;4.10;99.90
24814;DHT22;12904;50.088;11.414;2023-02-01T03:52:16;4.20;99.90
24814;DHT22;12904;50.088;11.414;2023-02-01T03:54:44;4.20;99.90
24814;DHT22;12904;50.088;11.414;2023-02-01T03:57:13;4.20;99.90
24814;DHT22;12904;50.088;11.414;2023-02-01T03:59:43;4.20;99.90
24814;DHT22;12904;50.088;11.414;2023-02-01T04:02:09;4.30;99.90
24814;DHT22;12904;50.088;11.414;2023-02-01T04:04:35;4.30;99.90
24814;DHT22;12904;50.088;11.414;2023-02-01T04:07:01;4.30;99.90
24814;DHT22;12904;50.088;11.414;2023-02-01T04:09:27;4.30;99.90
24814;DHT22;12904;50.088;11.414;2023-02-01T04:11:52;4.30;99.90
24814;DHT22;12904;50.088;11.414;2023-02-01T04:14:18;4.30;99.90
24814;DHT22;12904;50.088;11.414;2023-02-01T04:16:44;4.30;99.90
24814;DHT22;12904;50.088;11.414;2023-02-01T04:19:09;4.30;99.90
24814;DHT22;12904;50.088;11.414;2023-02-01T04:21:35;4.30;99.90
24814;DHT22;12904;50.088;11.414;2023-02-01T04:24:01;4.30;99.90
24814;DHT22;12904;50.088;11.414;2023-02-01T04:26:26;4.30;99.90
24814;DHT22;12904;50.088;11.414;2023-02-01T04:28:52;4.30;99.90
24814;DHT22;12904;50.088;11.414;2023-02-01T04:31:18;4.30;99.90
24814;DHT22;12904;50.088;11.414;2023-02-01T04:33:54;4.30;99.90
24814;DHT22;12904;50.088;11.414;2023-02-01T04:36:22;4.30;99.90
24814;DHT22;12904;50.088;11.414;2023-02-01T04:38:51;4.20;99.90
24814;DHT22;12904;50.088;11.414;2023-02-01T04:41:17;4.20;99.90
24814;DHT22;12904;50.088;11.414;2023-02-01T04:43:49;4.10;99.90
24814;DHT22;12904;50.088;11.414;2023-02-01T04:46:15;4.00;99.90
24814;DHT22;12904;50.088;11.414;2023-02-01T04:48:41;3.90;99.90
24814;DHT22;12904;50.088;11.414;2023-02-01T04:51:07;3.80;99.90
24814;DHT22;12904;50.088;11.414;2023-02-01T04:53:33;3.70;99.90
24814;DHT22;12904;50.088;11.414;2023-02-01T04:55:58;3.70;99.90
24814;DHT22;12904;50.088;11.414;2023-02-01T04:58:27;3.70;99.90
24814;DHT22;12904;50.088;11.414;2023-02-01T05:00:52;3.70;99.90
24814;DHT22;12904;50.088;11.414;2023-02-01T05:03:19;3.60;99.90
24814;DHT22;12904;50.088;11.414;2023-02-01T05:05:44;3.70;99.90
24814;DHT22;12904;50.088;11.414;2023-02-01T05:08:12;3.60;99.90
24814;DHT22;12904;50.088;11.414;2023-02-01T05:10:37;3.70;99.90
24814;DHT22;12904;50.088;11.414;2023-02-01T05:13:03;3.70;99.90
24814;DHT22;12904;50.088;11.414;2023-02-01T05:16:07;3.70;99.90
24814;DHT22;12904;50.088;11.414;2023-02-01T05:18:33;3.70;99.90
24814;DHT22;12904;50.088;11.414;2023-02-01T05:20:58;3.70;99.90
24814;DHT22;12904;50.088;11.414;2023-02-01T05:23:24;3.70;99.90
24814;DHT22;12904;50.088;11.414;2023-02-01T05:25:49;3.70;99.90
24814;DHT22;12904;50.088;11.414;2023-02-01T05:28:15;3.70;99.90
24814;DHT22;12904;50.088;11.414;2023-02-01T05:30:41;3.70;99.90
24814;DHT22;12904;50.088;11.414;2023-02-01T05:33:07;3.70;99.90
24814;DHT22;12904;50.088;11.414;2023-02-01T05:35:32;3.80;99.90
24814;DHT22;12904;50.088;11.414;2023-02-01T05:37:58;3.80;99.90
24814;DHT22;12904;50.088;11.414;2023-02-01T05:40:24;3.80;99.90
24814;DHT22;12904;50.088;11.414;2023-02-01T05:42:49;3.80;99.90
24814;DHT22;12904;50.088;11.414;2023-02-01T05:45:15;3.80;99.90
24814;DHT22;12904;50.088;11.414;2023-02-01T05:47:41;3.80;99.90
24814;DHT22;12904;50.088;11.414;2023-02-01T05:50:07;4.00;99.90
24814;DHT22;12904;50.088;11.414;2023-02-01T05:52:33;4.00;99.90
24814;DHT22;12904;50.088;11.414;2023-02-01T05:54:59;4.10;99.90
24814;DHT22;12904;50.088;11.414;2023-02-01T05:57:24;4.10;99.90
24814;DHT22;12904;50.088;11.414;2023-02-01T05:59:50;4.00;99.90
24814;DHT22;12904;50.088;11.414;2023-02-01T06:02:16;4.00;99.90
24814;DHT22;12904;50.088;11.414;2023-02-01T06:04:42;4.10;99.90
24814;DHT22;12904;50.088;11.414;2023-02-01T06:07:08;4.10;99.90
24814;DHT22;12904;50.088;11.414;2023-02-01T06:09:36;4.20;99.90
24814;DHT22;12904;50.088;11.414;2023-02-01T06:12:02;4.20;99.90
24814;DHT22;12904;50.088;11.414;2023-02-01T06:14:28;4.20;99.90
24814;DHT22;12904;50.088;11.414;2023-02-01T06:16:54;4.20;99.90
24814;DHT22;12904;50.088;11.414;2023-02-01T06:19:21;4.20;99.90
24814;DHT22;12904;50.088;11.414;2023-02-01T06:21:46;4.30;99.90
24814;DHT22;12904;50.088;11.414;2023-02-01T06:24:13;4.30;99.90
24814;DHT22;12904;50.088;11.414;2023-02-01T06:26:39;4.30;99.90
24814;DHT22;12904;50.088;11.414;2023-02-01T06:29:11;4.30;99.90
24814;DHT22;12904;50.088;11.414;2023-02-01T06:31:37;4.30;99.90
24814;DHT22;12904;50.088;11.414;2023-02-01T06:34:03;4.30;99.90
24814;DHT22;12904;50.088;11.414;2023-02-01T06:36:29;4.30;99.90
24814;DHT22;12904;50.088;11.414;2023-02-01T06:38:55;4.30;99.90
24814;DHT22;12904;50.088;11.414;2023-02-01T06:41:22;4.30;99.90
24814;DHT22;12904;50.088;11.414;2023-02-01T06:43:48;4.30;99.90
24814;DHT22;12904;50.088;11.414;2023-02-01T06:46:14;4.30;99.90
24814;DHT22;12904;50.088;11.414;2023-02-01T06:48:40;4.30;99.90
24814;DHT22;12904;50.088;11.414;2023-02-01T06:51:06;4.30;99.90
24814;DHT22;12904;50.088;11.414;2023-02-01T06:53:31;4.30;99.90
24814;DHT22;12904;50.088;11.414;2023-02-01T06:56:02;4.30;99.90
24814;DHT22;12904;50.088;11.414;2023-02-01T06:58:32;4.30;99.90
24814;DHT22;12904;50.088;11.414;2023-02-01T07:01:04;4.20;99.90
24814;DHT22;12904;50.088;11.414;2023-02-01T07:03:31;4.20;99.90
24814;DHT22;12904;50.088;11.414;2023-02-01T07:05:56;4.20;99.90
24814;DHT22;12904;50.088;11.414;2023-02-01T07:08:29;4.20;99.90
24814;DHT22;12904;50.088;11.414;2023-02-01T07:10:56;4.10;99.90
24814;DHT22;12904;50.088;11.414;2023-02-01T07:13:22;4.10;99.90
24814;DHT22;12904;50.088;11.414;2023-02-01T07:15:48;4.10;99.90
24814;DHT22;12904;50.088;11.414;2023-02-01T07:18:14;4.20;99.90
24814;DHT22;12904;50.088;11.414;2023-02-01T07:20:41;4.10;99.90
24814;DHT22;12904;50.088;11.414;2023-02-01T07:23:09;4.10;99.90
24814;DHT22;12904;50.088;11.414;2023-02-01T07:25:35;4.10;99.90
24814;DHT22;12904;50.088;11.414;2023-02-01T07:28:00;4.10;99.90
24814;DHT22;12904;50.088;11.414;2023-02-01T07:30:26;4.20;99.90
24814;DHT22;12904;50.088;11.414;2023-02-01T07:32:52;4.20;99.90
24814;DHT22;12904;50.088;11.414;2023-02-01T07:35:17;4.20;99.90
24814;DHT22;12904;50.088;11.414;2023-02-01T07:37:43;4.30;99.90
24814;DHT22;12904;50.088;11.414;2023-02-01T07:40:09;4.30;99.90
24814;DHT22;12904;50.088;11.414;2023-02-01T07:42:35;4.30;99.90
24814;DHT22;12904;50.088;11.414;2023-02-01T07:45:01;4.30;99.90
24814;DHT22;12904;50.088;11.414;2023-02-01T07:47:28;4.20;99.90
24814;DHT22;12904;50.088;11.414;2023-02-01T07:49:53;4.30;99.90
24814;DHT22;12904;50.088;11.414;2023-02-01T07:52:19;4.30;99.90
24814;DHT22;12904;50.088;11.414;2023-02-01T07:54:44;4.20;99.90
24814;DHT22;12904;50.088;11.414;2023-02-01T07:57:10;4.20;99.90
24814;DHT22;12904;50.088;11.414;2023-02-01T07:59:37;4.30;99.90
24814;DHT22;12904;50.088;11.414;2023-02-01T08:02:22;4.30;99.90
24814;DHT22;12904;50.088;11.414;2023-02-01T08:04:48;4.30;99.90
24814;DHT22;12904;50.088;11.414;2023-02-01T08:07:14;4.40;99.90
24814;DHT22;12904;50.088;11.414;2023-02-01T08:09:40;4.40;99.90
24814;DHT22;12904;50.088;11.414;2023-02-01T08:12:06;4.40;99.90
24814;DHT22;12904;50.088;11.414;2023-02-01T08:14:31;4.50;99.90
24814;DHT22;12904;50.088;11.414;2023-02-01T08:16:57;4.50;99.90
24814;DHT22;12904;50.088;11.414;2023-02-01T08:19:22;4.40;99.90
24814;DHT22;12904;50.088;11.414;2023-02-01T08:21:48;4.50;99.90
24814;DHT22;12904;50.088;11.414;2023-02-01T08:24:14;4.60;99.90
24814;DHT22;12904;50.088;11.414;2023-02-01T08:26:40;4.60;99.90
24814;DHT22;12904;50.088;11.414;2023-02-01T08:29:07;4.70;99.90
24814;DHT22;12904;50.088;11.414;2023-02-01T08:31:32;4.70;99.90
24814;DHT22;12904;50.088;11.414;2023-02-01T08:34:00;4.80;99.90
24814;DHT22;12904;50.088;11.414;2023-02-01T08:36:28;4.80;99.90
24814;DHT22;12904;50.088;11.414;2023-02-01T08:38:54;4.90;99.90
24814;DHT22;12904;50.088;11.414;2023-02-01T08:41:22;5.00;99.90
24814;DHT22;12904;50.088;11.414;2023-02-01T08:43:48;5.00;99.90
24814;DHT22;12904;50.088;11.414;2023-02-01T08:46:14;5.10;99.90
24814;DHT22;12904;50.088;11.414;2023-02-01T08:48:40;5.10;99.90
24814;DHT22;12904;50.088;11.414;2023-02-01T08:51:09;5.10;99.90
24814;DHT22;12904;50.088;11.414;2023-02-01T08:53:36;5.10;99.90
24814;DHT22;12904;50.088;11.414;2023-02-01T08:56:02;5.00;99.90
24814;DHT22;12904;50.088;11.414;2023-02-01T08:58:28;5.00;99.90
24814;DHT22;12904;50.088;11.414;2023-02-01T09:00:54;5.00;99.90
24814;DHT22;12904;50.088;11.414;2023-02-01T09:03:19;5.00;99.90
24814;DHT22;12904;50.088;11.414;2023-02-01T09:05:45;5.00;99.90
24814;DHT22;12904;50.088;11.414;2023-02-01T09:08:11;5.00;99.90
24814;DHT22;12904;50.088;11.414;2023-02-01T09:10:40;5.00;99.90
24814;DHT22;12904;50.088;11.414;2023-02-01T09:13:07;5.00;99.90
24814;DHT22;12904;50.088;11.414;2023-02-01T09:15:33;5.10;99.90
24814;DHT22;12904;50.088;11.414;2023-02-01T09:17:59;5.10;99.90
24814;DHT22;12904;50.088;11.414;2023-02-01T09:20:24;5.00;99.90
24814;DHT22;12904;50.088;11.414;2023-02-01T09:22:51;5.00;99.90
24814;DHT22;12904;50.088;11.414;2023-02-01T09:25:17;5.00;99.90
24814;DHT22;12904;50.088;11.414;2023-02-01T09:27:43;5.00;99.90
24814;DHT22;12904;50.088;11.414;2023-02-01T09:30:09;4.90;99.90
24814;DHT22;12904;50.088;11.414;2023-02-01T09:32:35;4.90;99.90
24814;DHT22;12904;50.088;11.414;2023-02-01T09:35:01;4.90;99.90
24814;DHT22;12904;50.088;11.414;2023-02-01T09:37:27;4.90;99.90
24814;DHT22;12904;50.088;11.414;2023-02-01T09:39:52;4.90;99.90
24814;DHT22;12904;50.088;11.414;2023-02-01T09:48:29;5.10;99.90
24814;DHT22;12904;50.088;11.414;2023-02-01T09:50:58;5.20;99.90
24814;DHT22;12904;50.088;11.414;2023-02-01T09:56:06;5.30;99.90
24814;DHT22;12904;50.088;11.414;2023-02-01T09:58:51;5.30;99.90
24814;DHT22;12904;50.088;11.414;2023-02-01T10:01:22;5.30;99.90
24814;DHT22;12904;50.088;11.414;2023-02-01T10:03:49;5.30;99.90
24814;DHT22;12904;50.088;11.414;2023-02-01T10:20:20;5.80;99.90
24814;DHT22;12904;50.088;11.414;2023-02-01T10:25:55;5.60;99.90
24814;DHT22;12904;50.088;11.414;2023-02-01T10:28:22;5.60;99.90
24814;DHT22;12904;50.088;11.414;2023-02-01T10:30:53;5.60;99.90
24814;DHT22;12904;50.088;11.414;2023-02-01T10:33:32;5.60;99.90
24814;DHT22;12904;50.088;11.414;2023-02-01T10:38:33;5.60;99.90
24814;DHT22;12904;50.088;11.414;2023-02-01T10:41:05;5.70;99.90
24814;DHT22;12904;50.088;11.414;2023-02-01T10:43:34;5.70;99.90
24814;DHT22;12904;50.088;11.414;2023-02-01T10:46:00;5.80;99.90
24814;DHT22;12904;50.088;11.414;2023-02-01T10:48:26;5.90;99.90
24814;DHT22;12904;50.088;11.414;2023-02-01T10:51:10;5.90;99.90
24814;DHT22;12904;50.088;11.414;2023-02-01T10:53:50;6.00;99.90
24814;DHT22;12904;50.088;11.414;2023-02-01T10:56:26;5.90;99.90
24814;DHT22;12904;50.088;11.414;2023-02-01T10:59:04;5.90;99.90
24814;DHT22;12904;50.088;11.414;2023-02-01T11:01:44;5.80;99.90
24814;DHT22;12904;50.088;11.414;2023-02-01T11:04:12;5.80;99.90
24814;DHT22;12904;50.088;11.414;2023-02-01T11:07:03;5.70;99.90
24814;DHT22;12904;50.088;11.414;2023-02-01T11:09:38;5.70;99.90
24814;DHT22;12904;50.088;11.414;2023-02-01T11:12:04;5.70;99.90
24814;DHT22;12904;50.088;11.414;2023-02-01T11:14:40;5.60;99.90
24814;DHT22;12904;50.088;11.414;2023-02-01T11:20:12;5.60;99.90
24814;DHT22;12904;50.088;11.414;2023-02-01T11:22:48;5.70;99.90
24814;DHT22;12904;50.088;11.414;2023-02-01T11:25:16;5.70;99.90
24814;DHT22;12904;50.088;11.414;2023-02-01T11:27:43;5.60;99.90
24814;DHT22;12904;50.088;11.414;2023-02-01T11:30:38;5.60;99.90
24814;DHT22;12904;50.088;11.414;2023-02-01T11:33:08;5.70;99.90
24814;DHT22;12904;50.088;11.414;2023-02-01T11:35:38;5.70;99.90
24814;DHT22;12904;50.088;11.414;2023-02-01T11:38:27;5.70;99.90
24814;DHT22;12904;50.088;11.414;2023-02-01T11:40:54;5.70;99.90
24814;DHT22;12904;50.088;11.414;2023-02-01T11:43:27;5.60;99.90
24814;DHT22;12904;50.088;11.414;2023-02-01T11:45:58;5.60;99.90
24814;DHT22;12904;50.088;11.414;2023-02-01T11:48:27;5.50;99.90
24814;DHT22;12904;50.088;11.414;2023-02-01T11:53:58;5.50;99.90
24814;DHT22;12904;50.088;11.414;2023-02-01T12:07:33;5.50;99.90
24814;DHT22;12904;50.088;11.414;2023-02-01T12:23:43;5.40;99.90
24814;DHT22;12904;50.088;11.414;2023-02-01T12:43:25;5.40;99.90
24814;DHT22;12904;50.088;11.414;2023-02-01T12:46:02;5.40;99.90
24814;DHT22;12904;50.088;11.414;2023-02-01T12:48:40;5.40;99.90
24814;DHT22;12904;50.088;11.414;2023-02-01T12:51:12;5.50;99.90
24814;DHT22;12904;50.088;11.414;2023-02-01T12:56:32;5.50;99.90
24814;DHT22;12904;50.088;11.414;2023-02-01T12:59:04;5.50;99.90
24814;DHT22;12904;50.088;11.414;2023-02-01T13:01:39;5.60;99.90
24814;DHT22;12904;50.088;11.414;2023-02-01T13:04:33;5.60;99.90
24814;DHT22;12904;50.088;11.414;2023-02-01T13:07:19;5.60;99.90
24814;DHT22;12904;50.088;11.414;2023-02-01T13:10:03;5.60;99.90
24814;DHT22;12904;50.088;11.414;2023-02-01T13:12:43;5.60;99.90
24814;DHT22;12904;50.088;11.414;2023-02-01T13:15:29;5.60;99.90
24814;DHT22;12904;50.088;11.414;2023-02-01T13:18:00;5.60;99.90
24814;DHT22;12904;50.088;11.414;2023-02-01T13:25:49;5.50;99.90
24814;DHT22;12904;50.088;11.414;2023-02-01T13:42:17;5.60;99.90
24814;DHT22;12904;50.088;11.414;2023-02-01T13:44:50;5.70;99.90
24814;DHT22;12904;50.088;11.414;2023-02-01T13:49:43;5.70;99.90
24814;DHT22;12904;50.088;11.414;2023-02-01T13:52:25;5.70;99.90
24814;DHT22;12904;50.088;11.414;2023-02-01T13:55:02;5.70;99.90
24814;DHT22;12904;50.088;11.414;2023-02-01T13:57:37;5.70;99.90
24814;DHT22;12904;50.088;11.414;2023-02-01T14:13:22;5.60;99.90
24814;DHT22;12904;50.088;11.414;2023-02-01T14:23:43;5.60;99.90
24814;DHT22;12904;50.088;11.414;2023-02-01T14:26:16;5.60;99.90
24814;DHT22;12904;50.088;11.414;2023-02-01T14:34:16;5.60;99.90
24814;DHT22;12904;50.088;11.414;2023-02-01T14:36:52;5.60;99.90
24814;DHT22;12904;50.088;11.414;2023-02-01T14:39:35;5.60;99.90
24814;DHT22;12904;50.088;11.414;2023-02-01T14:42:33;5.70;99.90
24814;DHT22;12904;50.088;11.414;2023-02-01T14:53:33;5.70;99.90
24814;DHT22;12904;50.088;11.414;2023-02-01T14:58:56;5.70;99.90
24814;DHT22;12904;50.088;11.414;2023-02-01T15:01:24;5.70;99.90
24814;DHT22;12904;50.088;11.414;2023-02-01T15:04:15;5.70;99.90
24814;DHT22;12904;50.088;11.414;2023-02-01T15:06:58;5.70;99.90
24814;DHT22;12904;50.088;11.414;2023-02-01T15:09:28;5.60;99.90
24814;DHT22;12904;50.088;11.414;2023-02-01T15:14:32;5.50;99.90
24814;DHT22;12904;50.088;11.414;2023-02-01T15:16:58;5.50;99.90
24814;DHT22;12904;50.088;11.414;2023-02-01T15:19:27;5.50;99.90
24814;DHT22;12904;50.088;11.414;2023-02-01T15:21:56;5.50;99.90
24814;DHT22;12904;50.088;11.414;2023-02-01T15:24:24;5.50;99.90
24814;DHT22;12904;50.088;11.414;2023-02-01T15:26:51;5.50;99.90
24814;DHT22;12904;50.088;11.414;2023-02-01T15:29:19;5.50;99.90
24814;DHT22;12904;50.088;11.414;2023-02-01T15:31:50;5.50;99.90
24814;DHT22;12904;50.088;11.414;2023-02-01T15:34:17;5.50;99.90
24814;DHT22;12904;50.088;11.414;2023-02-01T15:36:44;5.50;99.90
24814;DHT22;12904;50.088;11.414;2023-02-01T15:41:48;5.40;99.90
24814;DHT22;12904;50.088;11.414;2023-02-01T15:44:27;5.40;99.90
24814;DHT22;12904;50.088;11.414;2023-02-01T15:46:54;5.40;99.90
24814;DHT22;12904;50.088;11.414;2023-02-01T15:49:32;5.40;99.90
24814;DHT22;12904;50.088;11.414;2023-02-01T15:52:00;5.50;99.90
24814;DHT22;12904;50.088;11.414;2023-02-01T15:54:46;5.40;99.90
24814;DHT22;12904;50.088;11.414;2023-02-01T15:57:27;5.50;99.90
24814;DHT22;12904;50.088;11.414;2023-02-01T15:59:57;5.50;99.90
24814;DHT22;12904;50.088;11.414;2023-02-01T16:02:36;5.50;99.90
24814;DHT22;12904;50.088;11.414;2023-02-01T16:05:05;5.60;99.90
24814;DHT22;12904;50.088;11.414;2023-02-01T16:07:33;5.50;99.90
24814;DHT22;12904;50.088;11.414;2023-02-01T16:10:00;5.50;99.90
24814;DHT22;12904;50.088;11.414;2023-02-01T16:12:46;5.50;99.90
24814;DHT22;12904;50.088;11.414;2023-02-01T16:15:12;5.50;99.90
24814;DHT22;12904;50.088;11.414;2023-02-01T16:17:38;5.50;99.90
24814;DHT22;12904;50.088;11.414;2023-02-01T16:20:04;5.50;99.90
24814;DHT22;12904;50.088;11.414;2023-02-01T16:22:29;5.50;99.90
24814;DHT22;12904;50.088;11.414;2023-02-01T16:24:55;5.50;99.90
24814;DHT22;12904;50.088;11.414;2023-02-01T16:27:21;5.50;99.90
24814;DHT22;12904;50.088;11.414;2023-02-01T16:29:48;5.50;99.90
24814;DHT22;12904;50.088;11.414;2023-02-01T16:32:19;5.50;99.90
24814;DHT22;12904;50.088;11.414;2023-02-01T16:34:46;5.50;99.90
24814;DHT22;12904;50.088;11.414;2023-02-01T16:37:19;5.50;99.90
24814;DHT22;12904;50.088;11.414;2023-02-01T16:39:45;5.60;99.90
24814;DHT22;12904;50.088;11.414;2023-02-01T16:42:12;5.50;99.90
24814;DHT22;12904;50.088;11.414;2023-02-01T16:44:39;5.50;99.90
24814;DHT22;12904;50.088;11.414;2023-02-01T16:47:15;5.50;99.90
24814;DHT22;12904;50.088;11.414;2023-02-01T16:49:42;5.50;99.90
24814;DHT22;12904;50.088;11.414;2023-02-01T16:52:21;5.60;99.90
24814;DHT22;12904;50.088;11.414;2023-02-01T16:54:48;5.50;99.90
24814;DHT22;12904;50.088;11.414;2023-02-01T16:57:16;5.50;99.90
24814;DHT22;12904;50.088;11.414;2023-02-01T16:59:43;5.50;99.90
24814;DHT22;12904;50.088;11.414;2023-02-01T17:02:14;5.50;99.90
24814;DHT22;12904;50.088;11.414;2023-02-01T17:04:41;5.50;99.90
24814;DHT22;12904;50.088;11.414;2023-02-01T17:07:07;5.50;99.90
24814;DHT22;12904;50.088;11.414;2023-02-01T17:09:38;5.50;99.90
24814;DHT22;12904;50.088;11.414;2023-02-01T17:12:04;5.50;99.90
24814;DHT22;12904;50.088;11.414;2023-02-01T17:14:38;5.50;99.90
24814;DHT22;12904;50.088;11.414;2023-02-01T17:17:05;5.50;99.90
24814;DHT22;12904;50.088;11.414;2023-02-01T17:19:32;5.50;99.90
24814;DHT22;12904;50.088;11.414;2023-02-01T17:21:58;5.50;99.90
24814;DHT22;12904;50.088;11.414;2023-02-01T17:24:28;5.50;99.90
24814;DHT22;12904;50.088;11.414;2023-02-01T17:26:54;5.50;99.90
24814;DHT22;12904;50.088;11.414;2023-02-01T17:29:20;5.50;99.90
24814;DHT22;12904;50.088;11.414;2023-02-01T17:31:49;5.50;99.90
24814;DHT22;12904;50.088;11.414;2023-02-01T17:34:16;5.50;99.90
24814;DHT22;12904;50.088;11.414;2023-02-01T17:36:44;5.50;99.90
24814;DHT22;12904;50.088;11.414;2023-02-01T17:39:10;5.40;99.90
24814;DHT22;12904;50.088;11.414;2023-02-01T17:41:56;5.40;99.90
24814;DHT22;12904;50.088;11.414;2023-02-01T17:44:21;5.40;99.90
24814;DHT22;12904;50.088;11.414;2023-02-01T17:46:47;5.40;99.90
24814;DHT22;12904;50.088;11.414;2023-02-01T17:49:13;5.40;99.90
24814;DHT22;12904;50.088;11.414;2023-02-01T17:51:38;5.40;99.90
24814;DHT22;12904;50.088;11.414;2023-02-01T17:54:11;5.40;99.90
24814;DHT22;12904;50.088;11.414;2023-02-01T17:56:37;5.30;99.90
24814;DHT22;12904;50.088;11.414;2023-02-01T17:59:03;5.30;99.90
24814;DHT22;12904;50.088;11.414;2023-02-01T18:01:28;5.30;99.90
24814;DHT22;12904;50.088;11.414;2023-02-01T18:03:54;5.40;99.90
24814;DHT22;12904;50.088;11.414;2023-02-01T18:06:24;5.40;99.90
24814;DHT22;12904;50.088;11.414;2023-02-01T18:08:55;5.40;99.90
24814;DHT22;12904;50.088;11.414;2023-02-01T18:11:23;5.50;99.90
24814;DHT22;12904;50.088;11.414;2023-02-01T18:13:51;5.50;99.90
24814;DHT22;12904;50.088;11.414;2023-02-01T18:16:28;5.50;99.90
24814;DHT22;12904;50.088;11.414;2023-02-01T18:18:54;5.50;99.90
24814;DHT22;12904;50.088;11.414;2023-02-01T18:21:29;5.50;99.90
24814;DHT22;12904;50.088;11.414;2023-02-01T18:23:55;5.50;99.90
24814;DHT22;12904;50.088;11.414;2023-02-01T18:26:21;5.60;99.90
24814;DHT22;12904;50.088;11.414;2023-02-01T18:28:46;5.60;99.90
24814;DHT22;12904;50.088;11.414;2023-02-01T18:31:21;5.60;99.90
24814;DHT22;12904;50.088;11.414;2023-02-01T18:33:48;5.60;99.90
24814;DHT22;12904;50.088;11.414;2023-02-01T18:36:14;5.60;99.90
24814;DHT22;12904;50.088;11.414;2023-02-01T18:38:40;5.50;99.90
24814;DHT22;12904;50.088;11.414;2023-02-01T18:41:14;5.50;99.90